| Time | Avg. Air Temp | Dew Point | Avg. Rel Humidity | Avg. 2 Min Wind Speed | Max Gust Velocity | MGV Time | MGV Direction | Avg. Spot Wind Velocity |
|---|---|---|---|---|---|---|---|---|
| 2026-05-04 20:00:00 | 4° C | -5° C | 55% | 22 km/h | 32 km/h | 20:00:00 | N | 21 km/h |
| 19:00:00 | 5° C | -3° C | 56% | 1 km/h | 16 km/h | 18:56:00 | W | 2 km/h |
| 18:00:00 | 5° C | -3° C | 52% | 15 km/h | 18 km/h | 17:58:00 | NE | 13 km/h |
| 17:00:00 | 6° C | -3° C | 51% | 5 km/h | 11 km/h | 17:00:00 | W | 4 km/h |
| 16:00:00 | 6° C | -3° C | 54% | 3 km/h | 8 km/h | 15:56:00 | SW | 4 km/h |
| 15:00:00 | 6° C | -3° C | 52% | 5 km/h | 14 km/h | 14:56:00 | SW | 3 km/h |
| 14:00:00 | 6° C | -3° C | 53% | 4 km/h | 12 km/h | 13:57:00 | SW | 6 km/h |
| 13:00:00 | 5° C | -3° C | 54% | 5 km/h | 10 km/h | 12:59:00 | NE | 4 km/h |
| 12:00:00 | 5° C | -3° C | 55% | 7 km/h | 13 km/h | 12:00:00 | NE | 8 km/h |
| 11:00:00 | 4° C | -3° C | 61% | 18 km/h | 30 km/h | 10:56:00 | N | 21 km/h |
| 10:00:00 | 3° C | -3° C | 61% | 36 km/h | 40 km/h | 09:59:00 | NE | 36 km/h |
| 09:00:00 | 3° C | -3° C | 61% | 33 km/h | 38 km/h | 09:00:00 | NE | 32 km/h |
| 08:00:00 | 3° C | -3° C | 60% | 25 km/h | 41 km/h | 07:56:00 | N | 26 km/h |
| 07:00:00 | 3° C | -3° C | 60% | 35 km/h | 39 km/h | 06:59:00 | NE | 34 km/h |
| 06:00:00 | 4° C | -4° C | 57% | 24 km/h | 28 km/h | 05:58:00 | NE | 26 km/h |
| 05:00:00 | 4° C | -4° C | 57% | 23 km/h | 24 km/h | 04:57:00 | NE | 22 km/h |
| 04:00:00 | 4° C | -4° C | 55% | 20 km/h | 28 km/h | 03:59:00 | NE | 17 km/h |
| 03:00:00 | 4° C | -4° C | 56% | 20 km/h | 27 km/h | 03:00:00 | NE | 16 km/h |
| 02:00:00 | 4° C | -4° C | 57% | 13 km/h | 25 km/h | 01:58:00 | NW | 17 km/h |
| 01:00:00 | 4° C | -4° C | 55% | 7 km/h | 14 km/h | 00:59:00 | SW | 6 km/h |
| 00:00:00 | 5° C | -4° C | 52% | 6 km/h | 15 km/h | 23:59:00 | SW | 6 km/h |
| 23:00:00 | 6° C | -3° C | 53% | 5 km/h | 24 km/h | 22:57:00 | N | 7 km/h |
| 22:00:00 | 6° C | -2° C | 55% | 2 km/h | 14 km/h | 21:57:00 | NE | 4 km/h |
| 21:00:00 | 7° C | -3° C | 50% | 19 km/h | 23 km/h | 20:59:00 | NW | 18 km/h |
Subpeak Weather
| Time | Avg. Air Temp | Dew Point | Avg. Rel Humidity | Avg. 2 Min Wind Speed | Max Gust Velocity | MGV Time | MGV Direction | Avg. Spot Wind Velocity |
|---|---|---|---|---|---|---|---|---|
| 2026-05-04 20:00:00 | 4° C | -5° C | 55% | 22 km/h | 32 km/h | 20:00:00 | N | 21 km/h |
| 19:55:00 | 4° C | -4° C | 55% | 17 km/h | 35 km/h | 19:53:00 | N | 22 km/h |
| 19:50:00 | 4° C | -4° C | 55% | 24 km/h | 32 km/h | 19:47:00 | NE | 23 km/h |
| 19:45:00 | 4° C | -4° C | 56% | 24 km/h | 28 km/h | 19:42:00 | NE | 21 km/h |
| 19:40:00 | 4° C | -4° C | 55% | 19 km/h | 28 km/h | 19:36:00 | N | 14 km/h |
| 19:35:00 | 4° C | -4° C | 55% | 15 km/h | 24 km/h | 19:34:00 | NE | 17 km/h |
| 19:30:00 | 4° C | -4° C | 55% | 19 km/h | 25 km/h | 19:30:00 | NE | 13 km/h |
| 19:25:00 | 4° C | -4° C | 56% | 8 km/h | 22 km/h | 19:22:00 | NE | 9 km/h |
| 19:20:00 | 5° C | -4° C | 56% | 10 km/h | 22 km/h | 19:17:00 | N | 7 km/h |
| 19:15:00 | 5° C | -4° C | 56% | 10 km/h | 17 km/h | 19:14:00 | NE | 10 km/h |
| 19:10:00 | 5° C | -3° C | 56% | 4 km/h | 16 km/h | 19:06:00 | N | 7 km/h |
| 19:05:00 | 5° C | -3° C | 55% | 14 km/h | 22 km/h | 19:05:00 | NE | 9 km/h |
| 19:00:00 | 5° C | -3° C | 56% | 1 km/h | 16 km/h | 18:56:00 | W | 2 km/h |




